sensor_id;sensor_type;location;lat;lon;timestamp;P1;durP1;ratioP1;P2;durP2;ratioP2
35847;SDS011;22332;51.954;20.118;2024-01-15T00:01:33;15.30;;;10.00;;
35847;SDS011;22332;51.954;20.118;2024-01-15T00:04:39;15.30;;;9.50;;
35847;SDS011;22332;51.954;20.118;2024-01-15T00:07:45;25.90;;;19.10;;
35847;SDS011;22332;51.954;20.118;2024-01-15T00:10:51;17.20;;;11.30;;
35847;SDS011;22332;51.954;20.118;2024-01-15T00:13:56;17.50;;;12.40;;
35847;SDS011;22332;51.954;20.118;2024-01-15T00:17:02;20.40;;;12.80;;
35847;SDS011;22332;51.954;20.118;2024-01-15T00:20:08;27.90;;;20.10;;
35847;SDS011;22332;51.954;20.118;2024-01-15T00:23:14;31.80;;;20.90;;
35847;SDS011;22332;51.954;20.118;2024-01-15T00:26:20;29.80;;;18.10;;
35847;SDS011;22332;51.954;20.118;2024-01-15T00:29:26;54.20;;;29.60;;
35847;SDS011;22332;51.954;20.118;2024-01-15T00:32:31;101.80;;;53.40;;
35847;SDS011;22332;51.954;20.118;2024-01-15T00:35:37;118.00;;;64.30;;
35847;SDS011;22332;51.954;20.118;2024-01-15T00:38:42;28.30;;;16.40;;
35847;SDS011;22332;51.954;20.118;2024-01-15T00:41:50;52.90;;;29.70;;
35847;SDS011;22332;51.954;20.118;2024-01-15T00:44:55;37.80;;;21.60;;
35847;SDS011;22332;51.954;20.118;2024-01-15T00:48:01;17.20;;;10.10;;
35847;SDS011;22332;51.954;20.118;2024-01-15T00:51:07;54.60;;;32.10;;
35847;SDS011;22332;51.954;20.118;2024-01-15T00:54:12;40.80;;;25.40;;
35847;SDS011;22332;51.954;20.118;2024-01-15T00:57:18;58.40;;;37.20;;
35847;SDS011;22332;51.954;20.118;2024-01-15T01:00:23;31.40;;;19.30;;
35847;SDS011;22332;51.954;20.118;2024-01-15T01:03:29;36.10;;;22.80;;
35847;SDS011;22332;51.954;20.118;2024-01-15T01:06:35;24.10;;;14.90;;
35847;SDS011;22332;51.954;20.118;2024-01-15T01:09:41;36.40;;;23.80;;
35847;SDS011;22332;51.954;20.118;2024-01-15T01:12:46;74.60;;;43.50;;
35847;SDS011;22332;51.954;20.118;2024-01-15T01:15:52;30.70;;;18.00;;
35847;SDS011;22332;51.954;20.118;2024-01-15T01:18:57;37.40;;;22.50;;
35847;SDS011;22332;51.954;20.118;2024-01-15T01:22:03;30.90;;;18.60;;
35847;SDS011;22332;51.954;20.118;2024-01-15T01:25:09;25.10;;;15.40;;
35847;SDS011;22332;51.954;20.118;2024-01-15T01:28:15;49.80;;;31.50;;
35847;SDS011;22332;51.954;20.118;2024-01-15T01:31:20;42.60;;;26.90;;
35847;SDS011;22332;51.954;20.118;2024-01-15T01:34:26;32.10;;;20.10;;
35847;SDS011;22332;51.954;20.118;2024-01-15T01:37:33;49.10;;;29.30;;
35847;SDS011;22332;51.954;20.118;2024-01-15T01:40:38;22.70;;;13.70;;
35847;SDS011;22332;51.954;20.118;2024-01-15T01:43:44;33.30;;;21.10;;
35847;SDS011;22332;51.954;20.118;2024-01-15T01:46:49;30.60;;;18.00;;
35847;SDS011;22332;51.954;20.118;2024-01-15T01:49:55;36.90;;;22.80;;
35847;SDS011;22332;51.954;20.118;2024-01-15T01:53:01;18.10;;;11.40;;
35847;SDS011;22332;51.954;20.118;2024-01-15T01:56:07;27.80;;;18.20;;
35847;SDS011;22332;51.954;20.118;2024-01-15T01:59:14;19.60;;;12.60;;
35847;SDS011;22332;51.954;20.118;2024-01-15T02:02:20;23.80;;;15.50;;
35847;SDS011;22332;51.954;20.118;2024-01-15T02:05:26;19.00;;;11.20;;
35847;SDS011;22332;51.954;20.118;2024-01-15T02:08:32;17.80;;;11.50;;
35847;SDS011;22332;51.954;20.118;2024-01-15T02:11:38;26.90;;;18.20;;
35847;SDS011;22332;51.954;20.118;2024-01-15T02:14:44;17.70;;;11.50;;
35847;SDS011;22332;51.954;20.118;2024-01-15T02:18:00;21.10;;;12.90;;
35847;SDS011;22332;51.954;20.118;2024-01-15T02:21:07;24.10;;;14.60;;
35847;SDS011;22332;51.954;20.118;2024-01-15T02:24:13;17.70;;;10.20;;
35847;SDS011;22332;51.954;20.118;2024-01-15T02:27:19;20.60;;;11.80;;
35847;SDS011;22332;51.954;20.118;2024-01-15T02:30:25;24.80;;;14.70;;
35847;SDS011;22332;51.954;20.118;2024-01-15T02:33:32;17.10;;;10.60;;
35847;SDS011;22332;51.954;20.118;2024-01-15T02:36:38;17.90;;;11.10;;
35847;SDS011;22332;51.954;20.118;2024-01-15T02:39:43;16.20;;;10.70;;
35847;SDS011;22332;51.954;20.118;2024-01-15T02:42:49;15.90;;;9.80;;
35847;SDS011;22332;51.954;20.118;2024-01-15T02:45:54;13.80;;;8.80;;
35847;SDS011;22332;51.954;20.118;2024-01-15T02:49:00;16.50;;;10.30;;
35847;SDS011;22332;51.954;20.118;2024-01-15T02:52:05;16.60;;;9.90;;
35847;SDS011;22332;51.954;20.118;2024-01-15T02:55:11;19.80;;;13.50;;
35847;SDS011;22332;51.954;20.118;2024-01-15T02:58:17;17.00;;;11.10;;
35847;SDS011;22332;51.954;20.118;2024-01-15T03:01:22;14.60;;;8.30;;
35847;SDS011;22332;51.954;20.118;2024-01-15T03:04:28;15.60;;;10.00;;
35847;SDS011;22332;51.954;20.118;2024-01-15T03:07:33;17.00;;;11.40;;
35847;SDS011;22332;51.954;20.118;2024-01-15T03:10:39;15.60;;;10.80;;
35847;SDS011;22332;51.954;20.118;2024-01-15T03:13:45;15.30;;;9.70;;
35847;SDS011;22332;51.954;20.118;2024-01-15T03:16:50;15.50;;;10.10;;
35847;SDS011;22332;51.954;20.118;2024-01-15T03:19:56;15.30;;;9.70;;
35847;SDS011;22332;51.954;20.118;2024-01-15T03:23:02;13.40;;;9.30;;
35847;SDS011;22332;51.954;20.118;2024-01-15T03:26:07;17.70;;;10.90;;
35847;SDS011;22332;51.954;20.118;2024-01-15T03:29:13;16.70;;;9.90;;
35847;SDS011;22332;51.954;20.118;2024-01-15T03:32:18;20.30;;;11.30;;
35847;SDS011;22332;51.954;20.118;2024-01-15T03:35:24;19.80;;;11.70;;
35847;SDS011;22332;51.954;20.118;2024-01-15T03:38:32;16.90;;;10.10;;
35847;SDS011;22332;51.954;20.118;2024-01-15T03:41:37;16.20;;;10.30;;
35847;SDS011;22332;51.954;20.118;2024-01-15T03:44:43;13.40;;;8.30;;
35847;SDS011;22332;51.954;20.118;2024-01-15T03:47:48;14.30;;;8.60;;
35847;SDS011;22332;51.954;20.118;2024-01-15T03:50:54;15.70;;;10.20;;
35847;SDS011;22332;51.954;20.118;2024-01-15T03:54:00;16.50;;;9.80;;
35847;SDS011;22332;51.954;20.118;2024-01-15T03:57:05;31.80;;;17.50;;
35847;SDS011;22332;51.954;20.118;2024-01-15T04:00:12;95.10;;;38.60;;
35847;SDS011;22332;51.954;20.118;2024-01-15T04:03:20;126.60;;;47.90;;
35847;SDS011;22332;51.954;20.118;2024-01-15T04:06:25;32.00;;;14.70;;
35847;SDS011;22332;51.954;20.118;2024-01-15T04:09:31;62.80;;;23.50;;
35847;SDS011;22332;51.954;20.118;2024-01-15T04:12:36;257.30;;;74.70;;
35847;SDS011;22332;51.954;20.118;2024-01-15T04:15:42;323.00;;;98.50;;
35847;SDS011;22332;51.954;20.118;2024-01-15T04:18:48;259.90;;;75.50;;
35847;SDS011;22332;51.954;20.118;2024-01-15T04:21:53;117.60;;;37.80;;
35847;SDS011;22332;51.954;20.118;2024-01-15T04:24:59;209.60;;;69.10;;
35847;SDS011;22332;51.954;20.118;2024-01-15T04:28:05;335.10;;;108.50;;
35847;SDS011;22332;51.954;20.118;2024-01-15T04:31:10;288.80;;;91.20;;
35847;SDS011;22332;51.954;20.118;2024-01-15T04:34:26;245.30;;;80.20;;
35847;SDS011;22332;51.954;20.118;2024-01-15T04:37:31;138.00;;;46.50;;
35847;SDS011;22332;51.954;20.118;2024-01-15T04:40:37;188.60;;;67.60;;
35847;SDS011;22332;51.954;20.118;2024-01-15T04:43:42;253.10;;;91.70;;
35847;SDS011;22332;51.954;20.118;2024-01-15T04:46:48;146.40;;;56.00;;
35847;SDS011;22332;51.954;20.118;2024-01-15T04:49:53;100.00;;;38.50;;
35847;SDS011;22332;51.954;20.118;2024-01-15T04:52:59;101.30;;;44.10;;
35847;SDS011;22332;51.954;20.118;2024-01-15T04:56:05;189.00;;;85.70;;
35847;SDS011;22332;51.954;20.118;2024-01-15T04:59:11;92.70;;;40.10;;
35847;SDS011;22332;51.954;20.118;2024-01-15T05:02:17;69.00;;;33.10;;
35847;SDS011;22332;51.954;20.118;2024-01-15T05:05:23;35.10;;;18.40;;
35847;SDS011;22332;51.954;20.118;2024-01-15T05:08:28;26.60;;;14.30;;
35847;SDS011;22332;51.954;20.118;2024-01-15T05:11:34;21.10;;;12.90;;
35847;SDS011;22332;51.954;20.118;2024-01-15T05:14:39;20.70;;;14.00;;
35847;SDS011;22332;51.954;20.118;2024-01-15T05:17:45;23.60;;;14.90;;
35847;SDS011;22332;51.954;20.118;2024-01-15T05:20:51;38.60;;;23.90;;
35847;SDS011;22332;51.954;20.118;2024-01-15T05:23:56;28.20;;;18.60;;
35847;SDS011;22332;51.954;20.118;2024-01-15T05:27:02;20.10;;;13.90;;
35847;SDS011;22332;51.954;20.118;2024-01-15T05:30:09;21.70;;;15.10;;
35847;SDS011;22332;51.954;20.118;2024-01-15T05:33:15;18.40;;;12.20;;
35847;SDS011;22332;51.954;20.118;2024-01-15T05:36:21;22.30;;;13.70;;
35847;SDS011;22332;51.954;20.118;2024-01-15T05:39:26;26.00;;;16.70;;
35847;SDS011;22332;51.954;20.118;2024-01-15T05:42:32;19.40;;;12.50;;
35847;SDS011;22332;51.954;20.118;2024-01-15T05:45:42;17.40;;;11.20;;
35847;SDS011;22332;51.954;20.118;2024-01-15T05:48:54;22.10;;;14.40;;
35847;SDS011;22332;51.954;20.118;2024-01-15T05:51:59;15.00;;;10.10;;
35847;SDS011;22332;51.954;20.118;2024-01-15T05:55:06;17.00;;;10.20;;
35847;SDS011;22332;51.954;20.118;2024-01-15T05:58:15;18.10;;;12.20;;
35847;SDS011;22332;51.954;20.118;2024-01-15T06:01:20;19.00;;;12.90;;
35847;SDS011;22332;51.954;20.118;2024-01-15T06:04:26;18.00;;;11.40;;
35847;SDS011;22332;51.954;20.118;2024-01-15T06:07:33;13.80;;;9.00;;
35847;SDS011;22332;51.954;20.118;2024-01-15T06:10:39;14.30;;;9.30;;
35847;SDS011;22332;51.954;20.118;2024-01-15T06:13:45;17.60;;;10.40;;
35847;SDS011;22332;51.954;20.118;2024-01-15T06:16:51;17.80;;;11.50;;
35847;SDS011;22332;51.954;20.118;2024-01-15T06:19:57;14.70;;;9.80;;
35847;SDS011;22332;51.954;20.118;2024-01-15T06:23:03;16.80;;;9.90;;
35847;SDS011;22332;51.954;20.118;2024-01-15T06:26:09;15.20;;;10.10;;
35847;SDS011;22332;51.954;20.118;2024-01-15T06:29:16;14.20;;;9.20;;
35847;SDS011;22332;51.954;20.118;2024-01-15T06:32:22;13.40;;;8.80;;
35847;SDS011;22332;51.954;20.118;2024-01-15T06:35:27;16.90;;;10.20;;
35847;SDS011;22332;51.954;20.118;2024-01-15T06:38:33;15.90;;;10.30;;
35847;SDS011;22332;51.954;20.118;2024-01-15T06:41:38;12.70;;;8.90;;
35847;SDS011;22332;51.954;20.118;2024-01-15T06:44:46;14.60;;;9.10;;
35847;SDS011;22332;51.954;20.118;2024-01-15T06:47:51;15.40;;;10.70;;
35847;SDS011;22332;51.954;20.118;2024-01-15T06:50:57;16.20;;;10.60;;
35847;SDS011;22332;51.954;20.118;2024-01-15T06:54:02;16.30;;;10.40;;
35847;SDS011;22332;51.954;20.118;2024-01-15T06:57:08;15.90;;;9.70;;
35847;SDS011;22332;51.954;20.118;2024-01-15T07:00:15;16.10;;;10.70;;
35847;SDS011;22332;51.954;20.118;2024-01-15T07:03:22;16.00;;;9.90;;
35847;SDS011;22332;51.954;20.118;2024-01-15T07:06:27;16.70;;;9.80;;
35847;SDS011;22332;51.954;20.118;2024-01-15T07:09:33;16.00;;;9.10;;
35847;SDS011;22332;51.954;20.118;2024-01-15T07:12:39;63.50;;;30.00;;
35847;SDS011;22332;51.954;20.118;2024-01-15T07:15:47;38.20;;;20.10;;
35847;SDS011;22332;51.954;20.118;2024-01-15T07:18:53;70.70;;;33.50;;
35847;SDS011;22332;51.954;20.118;2024-01-15T07:21:58;79.70;;;37.40;;
35847;SDS011;22332;51.954;20.118;2024-01-15T07:25:04;97.50;;;48.90;;
35847;SDS011;22332;51.954;20.118;2024-01-15T07:28:10;75.90;;;38.50;;
35847;SDS011;22332;51.954;20.118;2024-01-15T07:31:16;73.10;;;36.60;;
35847;SDS011;22332;51.954;20.118;2024-01-15T07:34:22;68.60;;;31.90;;
35847;SDS011;22332;51.954;20.118;2024-01-15T07:37:28;90.80;;;41.00;;
35847;SDS011;22332;51.954;20.118;2024-01-15T07:40:34;66.20;;;32.50;;
35847;SDS011;22332;51.954;20.118;2024-01-15T07:43:40;51.80;;;26.10;;
35847;SDS011;22332;51.954;20.118;2024-01-15T07:46:46;40.40;;;20.90;;
35847;SDS011;22332;51.954;20.118;2024-01-15T07:49:52;87.90;;;41.60;;
35847;SDS011;22332;51.954;20.118;2024-01-15T07:52:58;78.20;;;43.40;;
35847;SDS011;22332;51.954;20.118;2024-01-15T07:56:04;94.30;;;51.40;;
35847;SDS011;22332;51.954;20.118;2024-01-15T07:59:09;88.30;;;47.80;;
35847;SDS011;22332;51.954;20.118;2024-01-15T08:02:15;66.70;;;38.30;;
35847;SDS011;22332;51.954;20.118;2024-01-15T08:05:20;51.30;;;29.00;;
35847;SDS011;22332;51.954;20.118;2024-01-15T08:08:26;41.90;;;25.50;;
35847;SDS011;22332;51.954;20.118;2024-01-15T08:11:32;35.80;;;21.40;;
35847;SDS011;22332;51.954;20.118;2024-01-15T08:14:37;116.70;;;47.30;;
35847;SDS011;22332;51.954;20.118;2024-01-15T08:17:43;61.50;;;24.40;;
35847;SDS011;22332;51.954;20.118;2024-01-15T08:20:48;59.70;;;23.70;;
35847;SDS011;22332;51.954;20.118;2024-01-15T08:23:55;57.40;;;21.70;;
35847;SDS011;22332;51.954;20.118;2024-01-15T08:27:01;66.20;;;27.30;;
35847;SDS011;22332;51.954;20.118;2024-01-15T08:30:09;188.40;;;69.70;;
35847;SDS011;22332;51.954;20.118;2024-01-15T08:33:16;248.90;;;87.10;;
35847;SDS011;22332;51.954;20.118;2024-01-15T08:36:21;189.60;;;68.40;;
35847;SDS011;22332;51.954;20.118;2024-01-15T08:39:27;443.30;;;169.00;;
35847;SDS011;22332;51.954;20.118;2024-01-15T08:42:32;256.20;;;78.90;;
35847;SDS011;22332;51.954;20.118;2024-01-15T08:45:38;471.40;;;126.40;;
35847;SDS011;22332;51.954;20.118;2024-01-15T08:48:44;138.20;;;39.10;;
35847;SDS011;22332;51.954;20.118;2024-01-15T08:51:49;419.00;;;101.70;;
35847;SDS011;22332;51.954;20.118;2024-01-15T08:54:55;560.70;;;173.20;;
35847;SDS011;22332;51.954;20.118;2024-01-15T08:58:01;684.00;;;258.90;;
35847;SDS011;22332;51.954;20.118;2024-01-15T09:01:07;327.10;;;100.10;;
35847;SDS011;22332;51.954;20.118;2024-01-15T09:04:12;294.60;;;124.50;;
35847;SDS011;22332;51.954;20.118;2024-01-15T09:07:18;448.40;;;158.90;;
35847;SDS011;22332;51.954;20.118;2024-01-15T09:10:24;205.30;;;56.70;;
35847;SDS011;22332;51.954;20.118;2024-01-15T09:13:29;249.70;;;85.20;;
35847;SDS011;22332;51.954;20.118;2024-01-15T09:16:35;303.50;;;104.30;;
35847;SDS011;22332;51.954;20.118;2024-01-15T09:19:40;593.00;;;221.30;;
35847;SDS011;22332;51.954;20.118;2024-01-15T09:22:47;201.10;;;67.20;;
35847;SDS011;22332;51.954;20.118;2024-01-15T09:25:54;129.70;;;47.90;;
35847;SDS011;22332;51.954;20.118;2024-01-15T09:29:00;179.40;;;85.20;;
35847;SDS011;22332;51.954;20.118;2024-01-15T09:32:09;67.00;;;28.70;;
35847;SDS011;22332;51.954;20.118;2024-01-15T09:35:15;29.90;;;16.40;;
35847;SDS011;22332;51.954;20.118;2024-01-15T09:38:21;24.80;;;14.20;;
35847;SDS011;22332;51.954;20.118;2024-01-15T09:41:28;13.60;;;7.80;;
35847;SDS011;22332;51.954;20.118;2024-01-15T09:44:34;14.60;;;9.70;;
35847;SDS011;22332;51.954;20.118;2024-01-15T09:47:40;13.40;;;7.40;;
35847;SDS011;22332;51.954;20.118;2024-01-15T09:50:47;10.90;;;6.40;;
35847;SDS011;22332;51.954;20.118;2024-01-15T09:54:32;10.30;;;6.00;;
35847;SDS011;22332;51.954;20.118;2024-01-15T09:57:39;48.80;;;23.00;;
35847;SDS011;22332;51.954;20.118;2024-01-15T10:00:45;72.00;;;29.80;;
35847;SDS011;22332;51.954;20.118;2024-01-15T10:03:53;106.20;;;40.40;;
35847;SDS011;22332;51.954;20.118;2024-01-15T10:07:00;97.70;;;36.40;;
35847;SDS011;22332;51.954;20.118;2024-01-15T10:10:07;284.60;;;101.10;;
35847;SDS011;22332;51.954;20.118;2024-01-15T10:13:14;195.50;;;60.50;;
35847;SDS011;22332;51.954;20.118;2024-01-15T10:16:20;160.80;;;53.50;;
35847;SDS011;22332;51.954;20.118;2024-01-15T10:19:26;157.70;;;43.40;;
35847;SDS011;22332;51.954;20.118;2024-01-15T10:22:31;377.40;;;114.80;;
35847;SDS011;22332;51.954;20.118;2024-01-15T10:25:37;255.00;;;74.30;;
35847;SDS011;22332;51.954;20.118;2024-01-15T10:28:45;566.70;;;176.40;;
35847;SDS011;22332;51.954;20.118;2024-01-15T10:31:55;317.50;;;89.30;;
35847;SDS011;22332;51.954;20.118;2024-01-15T10:35:00;223.40;;;66.20;;
35847;SDS011;22332;51.954;20.118;2024-01-15T10:38:07;171.70;;;57.20;;
35847;SDS011;22332;51.954;20.118;2024-01-15T10:41:12;137.60;;;47.90;;
35847;SDS011;22332;51.954;20.118;2024-01-15T10:44:18;143.80;;;47.50;;
35847;SDS011;22332;51.954;20.118;2024-01-15T10:47:24;412.10;;;170.50;;
35847;SDS011;22332;51.954;20.118;2024-01-15T10:50:30;252.00;;;94.50;;
35847;SDS011;22332;51.954;20.118;2024-01-15T10:53:37;91.10;;;36.30;;
35847;SDS011;22332;51.954;20.118;2024-01-15T10:56:45;69.70;;;32.00;;
35847;SDS011;22332;51.954;20.118;2024-01-15T10:59:50;65.90;;;30.50;;
35847;SDS011;22332;51.954;20.118;2024-01-15T11:02:56;32.90;;;16.00;;
35847;SDS011;22332;51.954;20.118;2024-01-15T11:06:04;94.40;;;45.30;;
35847;SDS011;22332;51.954;20.118;2024-01-15T11:09:22;46.60;;;25.70;;
35847;SDS011;22332;51.954;20.118;2024-01-15T11:12:28;49.90;;;28.10;;
35847;SDS011;22332;51.954;20.118;2024-01-15T11:15:35;61.10;;;35.30;;
35847;SDS011;22332;51.954;20.118;2024-01-15T11:19:02;117.40;;;41.70;;
35847;SDS011;22332;51.954;20.118;2024-01-15T11:25:46;109.10;;;48.70;;
35847;SDS011;22332;51.954;20.118;2024-01-15T11:28:52;134.10;;;58.40;;
35847;SDS011;22332;51.954;20.118;2024-01-15T11:31:58;217.00;;;100.30;;
35847;SDS011;22332;51.954;20.118;2024-01-15T11:35:06;42.50;;;20.40;;
35847;SDS011;22332;51.954;20.118;2024-01-15T11:38:13;62.20;;;29.50;;
35847;SDS011;22332;51.954;20.118;2024-01-15T11:41:32;29.70;;;16.80;;
35847;SDS011;22332;51.954;20.118;2024-01-15T11:44:38;28.30;;;17.10;;
35847;SDS011;22332;51.954;20.118;2024-01-15T11:51:18;27.30;;;16.80;;
35847;SDS011;22332;51.954;20.118;2024-01-15T11:54:25;19.00;;;12.10;;
35847;SDS011;22332;51.954;20.118;2024-01-15T11:57:40;15.20;;;9.30;;
35847;SDS011;22332;51.954;20.118;2024-01-15T12:00:49;27.40;;;19.40;;
35847;SDS011;22332;51.954;20.118;2024-01-15T12:03:57;15.60;;;10.00;;
35847;SDS011;22332;51.954;20.118;2024-01-15T12:07:03;29.90;;;16.70;;
35847;SDS011;22332;51.954;20.118;2024-01-15T12:10:09;15.10;;;8.50;;
35847;SDS011;22332;51.954;20.118;2024-01-15T12:13:15;14.60;;;7.60;;
35847;SDS011;22332;51.954;20.118;2024-01-15T12:16:22;28.20;;;18.70;;
35847;SDS011;22332;51.954;20.118;2024-01-15T12:19:28;17.20;;;11.40;;
35847;SDS011;22332;51.954;20.118;2024-01-15T12:22:33;16.30;;;10.40;;
35847;SDS011;22332;51.954;20.118;2024-01-15T12:25:39;16.40;;;9.70;;
35847;SDS011;22332;51.954;20.118;2024-01-15T12:28:45;16.10;;;9.20;;
35847;SDS011;22332;51.954;20.118;2024-01-15T12:31:54;18.70;;;10.40;;
35847;SDS011;22332;51.954;20.118;2024-01-15T12:34:59;11.80;;;7.90;;
35847;SDS011;22332;51.954;20.118;2024-01-15T12:38:05;13.10;;;8.30;;
35847;SDS011;22332;51.954;20.118;2024-01-15T12:41:11;14.00;;;7.60;;
35847;SDS011;22332;51.954;20.118;2024-01-15T12:44:16;75.20;;;35.10;;
35847;SDS011;22332;51.954;20.118;2024-01-15T12:47:22;53.00;;;23.10;;
35847;SDS011;22332;51.954;20.118;2024-01-15T12:50:29;124.70;;;53.70;;
35847;SDS011;22332;51.954;20.118;2024-01-15T12:53:34;77.10;;;33.20;;
35847;SDS011;22332;51.954;20.118;2024-01-15T12:56:40;159.40;;;66.70;;
35847;SDS011;22332;51.954;20.118;2024-01-15T12:59:46;87.50;;;37.90;;
35847;SDS011;22332;51.954;20.118;2024-01-15T13:02:52;81.60;;;34.80;;
35847;SDS011;22332;51.954;20.118;2024-01-15T13:06:00;170.50;;;72.00;;
35847;SDS011;22332;51.954;20.118;2024-01-15T13:09:05;266.10;;;123.60;;
35847;SDS011;22332;51.954;20.118;2024-01-15T13:12:13;103.80;;;45.50;;
35847;SDS011;22332;51.954;20.118;2024-01-15T13:15:19;42.00;;;19.70;;
35847;SDS011;22332;51.954;20.118;2024-01-15T13:18:25;36.10;;;20.60;;
35847;SDS011;22332;51.954;20.118;2024-01-15T13:21:31;28.50;;;16.10;;
35847;SDS011;22332;51.954;20.118;2024-01-15T13:24:36;31.90;;;19.30;;
35847;SDS011;22332;51.954;20.118;2024-01-15T13:27:42;32.60;;;17.40;;
35847;SDS011;22332;51.954;20.118;2024-01-15T13:30:47;49.80;;;27.40;;
35847;SDS011;22332;51.954;20.118;2024-01-15T13:33:53;65.50;;;31.50;;
35847;SDS011;22332;51.954;20.118;2024-01-15T13:36:59;147.20;;;72.60;;
35847;SDS011;22332;51.954;20.118;2024-01-15T13:40:06;42.00;;;19.90;;
35847;SDS011;22332;51.954;20.118;2024-01-15T13:43:19;64.90;;;30.30;;
35847;SDS011;22332;51.954;20.118;2024-01-15T13:46:25;161.90;;;85.30;;
35847;SDS011;22332;51.954;20.118;2024-01-15T13:49:30;54.70;;;27.30;;
35847;SDS011;22332;51.954;20.118;2024-01-15T13:52:38;36.30;;;16.80;;
35847;SDS011;22332;51.954;20.118;2024-01-15T13:55:44;33.80;;;15.70;;
35847;SDS011;22332;51.954;20.118;2024-01-15T13:58:50;63.40;;;34.20;;
35847;SDS011;22332;51.954;20.118;2024-01-15T14:01:56;35.20;;;21.40;;
35847;SDS011;22332;51.954;20.118;2024-01-15T14:05:01;39.70;;;22.20;;
35847;SDS011;22332;51.954;20.118;2024-01-15T14:08:07;69.60;;;35.60;;
35847;SDS011;22332;51.954;20.118;2024-01-15T14:11:13;90.80;;;43.00;;
35847;SDS011;22332;51.954;20.118;2024-01-15T14:14:18;101.50;;;51.90;;
35847;SDS011;22332;51.954;20.118;2024-01-15T14:17:24;33.70;;;15.00;;
35847;SDS011;22332;51.954;20.118;2024-01-15T14:20:29;37.10;;;17.70;;
35847;SDS011;22332;51.954;20.118;2024-01-15T14:23:35;18.20;;;8.80;;
35847;SDS011;22332;51.954;20.118;2024-01-15T14:26:41;37.30;;;18.50;;
35847;SDS011;22332;51.954;20.118;2024-01-15T14:29:47;116.40;;;55.10;;
35847;SDS011;22332;51.954;20.118;2024-01-15T14:32:52;98.20;;;47.50;;
35847;SDS011;22332;51.954;20.118;2024-01-15T14:35:58;47.30;;;23.20;;
35847;SDS011;22332;51.954;20.118;2024-01-15T14:39:03;31.30;;;16.70;;
35847;SDS011;22332;51.954;20.118;2024-01-15T14:42:09;25.20;;;12.50;;
35847;SDS011;22332;51.954;20.118;2024-01-15T14:45:15;20.60;;;10.40;;
35847;SDS011;22332;51.954;20.118;2024-01-15T14:48:20;28.60;;;13.50;;
35847;SDS011;22332;51.954;20.118;2024-01-15T14:51:26;22.80;;;12.60;;
35847;SDS011;22332;51.954;20.118;2024-01-15T14:54:31;26.30;;;14.30;;
35847;SDS011;22332;51.954;20.118;2024-01-15T14:57:37;33.90;;;20.00;;
35847;SDS011;22332;51.954;20.118;2024-01-15T15:00:43;17.40;;;9.30;;
35847;SDS011;22332;51.954;20.118;2024-01-15T15:03:49;22.00;;;12.80;;
35847;SDS011;22332;51.954;20.118;2024-01-15T15:06:55;28.10;;;16.10;;
35847;SDS011;22332;51.954;20.118;2024-01-15T15:10:01;40.60;;;25.80;;
35847;SDS011;22332;51.954;20.118;2024-01-15T15:13:08;22.20;;;12.20;;
35847;SDS011;22332;51.954;20.118;2024-01-15T15:16:13;20.00;;;11.20;;
35847;SDS011;22332;51.954;20.118;2024-01-15T15:19:19;21.70;;;13.00;;
35847;SDS011;22332;51.954;20.118;2024-01-15T15:22:25;15.90;;;9.20;;
35847;SDS011;22332;51.954;20.118;2024-01-15T15:25:30;52.00;;;23.90;;
35847;SDS011;22332;51.954;20.118;2024-01-15T15:28:36;124.00;;;42.90;;
35847;SDS011;22332;51.954;20.118;2024-01-15T15:31:42;530.20;;;196.30;;
35847;SDS011;22332;51.954;20.118;2024-01-15T15:34:48;270.50;;;77.00;;
35847;SDS011;22332;51.954;20.118;2024-01-15T15:37:53;97.10;;;29.00;;
35847;SDS011;22332;51.954;20.118;2024-01-15T15:40:59;27.80;;;11.70;;
35847;SDS011;22332;51.954;20.118;2024-01-15T15:44:05;59.80;;;22.40;;
35847;SDS011;22332;51.954;20.118;2024-01-15T15:47:13;72.50;;;28.50;;
35847;SDS011;22332;51.954;20.118;2024-01-15T15:50:19;88.10;;;37.20;;
35847;SDS011;22332;51.954;20.118;2024-01-15T15:53:25;101.10;;;42.50;;
35847;SDS011;22332;51.954;20.118;2024-01-15T15:56:30;118.60;;;51.20;;
35847;SDS011;22332;51.954;20.118;2024-01-15T15:59:41;416.60;;;141.30;;
35847;SDS011;22332;51.954;20.118;2024-01-15T16:02:47;196.40;;;59.60;;
35847;SDS011;22332;51.954;20.118;2024-01-15T16:05:53;277.50;;;103.40;;
35847;SDS011;22332;51.954;20.118;2024-01-15T16:08:58;86.70;;;30.90;;
35847;SDS011;22332;51.954;20.118;2024-01-15T16:12:05;57.90;;;27.80;;
35847;SDS011;22332;51.954;20.118;2024-01-15T16:15:18;88.00;;;39.30;;
35847;SDS011;22332;51.954;20.118;2024-01-15T16:18:25;37.60;;;17.20;;
35847;SDS011;22332;51.954;20.118;2024-01-15T16:21:34;71.10;;;35.30;;
35847;SDS011;22332;51.954;20.118;2024-01-15T16:24:39;47.60;;;25.50;;
35847;SDS011;22332;51.954;20.118;2024-01-15T16:27:45;31.60;;;15.20;;
35847;SDS011;22332;51.954;20.118;2024-01-15T16:30:51;38.00;;;18.30;;
35847;SDS011;22332;51.954;20.118;2024-01-15T16:33:57;51.70;;;27.40;;
35847;SDS011;22332;51.954;20.118;2024-01-15T16:37:03;32.20;;;18.50;;
35847;SDS011;22332;51.954;20.118;2024-01-15T16:40:11;27.10;;;15.90;;
35847;SDS011;22332;51.954;20.118;2024-01-15T16:43:17;24.50;;;13.10;;
35847;SDS011;22332;51.954;20.118;2024-01-15T16:46:23;23.10;;;13.00;;
35847;SDS011;22332;51.954;20.118;2024-01-15T16:49:28;27.30;;;15.90;;
35847;SDS011;22332;51.954;20.118;2024-01-15T16:52:36;28.20;;;14.30;;
35847;SDS011;22332;51.954;20.118;2024-01-15T16:56:23;18.20;;;10.00;;
35847;SDS011;22332;51.954;20.118;2024-01-15T16:59:29;93.40;;;37.10;;
35847;SDS011;22332;51.954;20.118;2024-01-15T17:02:35;469.80;;;232.40;;
35847;SDS011;22332;51.954;20.118;2024-01-15T17:05:40;111.60;;;44.40;;
35847;SDS011;22332;51.954;20.118;2024-01-15T17:08:46;74.60;;;30.20;;
35847;SDS011;22332;51.954;20.118;2024-01-15T17:11:52;82.40;;;32.70;;
35847;SDS011;22332;51.954;20.118;2024-01-15T17:14:57;279.80;;;101.60;;
35847;SDS011;22332;51.954;20.118;2024-01-15T17:18:03;146.20;;;50.80;;
35847;SDS011;22332;51.954;20.118;2024-01-15T17:21:10;148.00;;;52.30;;
35847;SDS011;22332;51.954;20.118;2024-01-15T17:24:16;167.10;;;64.90;;
35847;SDS011;22332;51.954;20.118;2024-01-15T17:27:22;66.90;;;27.60;;
35847;SDS011;22332;51.954;20.118;2024-01-15T17:30:27;178.20;;;70.10;;
35847;SDS011;22332;51.954;20.118;2024-01-15T17:33:33;38.80;;;18.30;;
35847;SDS011;22332;51.954;20.118;2024-01-15T17:36:39;40.60;;;19.70;;
35847;SDS011;22332;51.954;20.118;2024-01-15T17:39:45;101.50;;;53.80;;
35847;SDS011;22332;51.954;20.118;2024-01-15T17:42:51;44.10;;;23.80;;
35847;SDS011;22332;51.954;20.118;2024-01-15T17:45:57;72.10;;;28.60;;
35847;SDS011;22332;51.954;20.118;2024-01-15T17:49:05;111.70;;;46.20;;
35847;SDS011;22332;51.954;20.118;2024-01-15T17:52:11;118.10;;;50.20;;
35847;SDS011;22332;51.954;20.118;2024-01-15T17:55:19;105.90;;;44.90;;
35847;SDS011;22332;51.954;20.118;2024-01-15T17:58:26;132.30;;;51.10;;